createdAt,value
2023-02-23T00:01:29.038Z,7.96
2023-02-23T00:03:59.035Z,7.92
2023-02-23T00:06:30.546Z,7.99
2023-02-23T00:08:58.144Z,7.99
2023-02-23T00:11:24.654Z,8.02
2023-02-23T00:13:51.323Z,8.00
2023-02-23T00:16:20.839Z,7.94
2023-02-23T00:18:53.596Z,7.99
2023-02-23T00:21:24.309Z,7.87
2023-02-23T00:23:53.823Z,7.84
2023-02-23T00:26:23.252Z,7.88
2023-02-23T00:28:53.297Z,7.92
2023-02-23T00:31:26.247Z,8.00
2023-02-23T00:33:54.675Z,8.05
2023-02-23T00:36:28.334Z,8.10
2023-02-23T00:39:02.936Z,8.09
2023-02-23T00:41:29.950Z,8.12
2023-02-23T00:43:58.988Z,8.15
2023-02-23T00:46:29.088Z,8.21
2023-02-23T00:48:57.620Z,8.32
2023-02-23T00:51:32.559Z,8.26
2023-02-23T00:54:00.471Z,8.26
2023-02-23T00:56:27.917Z,8.27
2023-02-23T00:58:55.307Z,8.29
2023-02-23T01:01:23.294Z,8.30
2023-02-23T01:03:49.847Z,8.32
2023-02-23T01:06:17.544Z,8.30
2023-02-23T01:08:49.019Z,8.30
2023-02-23T01:11:21.267Z,8.31
2023-02-23T01:13:49.268Z,8.30
2023-02-23T01:16:18.925Z,8.36
2023-02-23T01:18:45.937Z,8.35
2023-02-23T01:21:41.092Z,8.33
2023-02-23T01:24:07.647Z,8.32
2023-02-23T01:26:37.506Z,8.29
2023-02-23T01:29:08.734Z,8.28
2023-02-23T01:31:36.367Z,8.26
2023-02-23T01:34:03.896Z,8.18
2023-02-23T01:36:34.683Z,8.12
2023-02-23T01:39:01.082Z,8.16
2023-02-23T01:41:29.842Z,8.16
2023-02-23T01:43:59.177Z,8.22
2023-02-23T01:46:26.178Z,8.23
2023-02-23T01:48:56.309Z,8.32
2023-02-23T01:51:27.683Z,8.36
2023-02-23T01:54:20.667Z,8.41
2023-02-23T01:56:57.861Z,8.44
2023-02-23T01:59:39.350Z,8.45
2023-02-23T02:02:05.803Z,8.43
2023-02-23T02:04:43.796Z,8.45
2023-02-23T02:07:14.245Z,8.43
2023-02-23T02:10:01.383Z,8.43
2023-02-23T02:12:27.779Z,8.45
2023-02-23T02:14:55.551Z,8.48
2023-02-23T02:17:56.359Z,8.50
2023-02-23T02:20:42.843Z,8.53
2023-02-23T02:23:33.835Z,8.49
2023-02-23T02:26:26.702Z,8.50
2023-02-23T02:29:08.990Z,8.50
2023-02-23T02:31:36.291Z,8.53
2023-02-23T02:34:23.849Z,8.52
2023-02-23T02:37:28.961Z,8.48
2023-02-23T02:40:16.523Z,8.53
2023-02-23T02:43:00.757Z,8.54
2023-02-23T02:45:40.938Z,8.46
2023-02-23T02:48:17.612Z,8.44
2023-02-23T02:50:53.008Z,8.43
2023-02-23T02:53:35.250Z,8.44
2023-02-23T02:56:05.641Z,8.44
2023-02-23T02:58:33.513Z,8.41
2023-02-23T03:01:26.623Z,8.42
2023-02-23T03:04:11.787Z,8.45
2023-02-23T03:07:09.246Z,8.49
2023-02-23T03:10:16.346Z,8.49
2023-02-23T03:13:14.280Z,8.42
2023-02-23T03:16:06.719Z,8.44
2023-02-23T03:19:17.461Z,8.37
2023-02-23T03:22:12.743Z,8.43
2023-02-23T03:25:00.418Z,8.41
2023-02-23T03:28:03.490Z,8.38
2023-02-23T03:31:01.457Z,8.38
2023-02-23T03:34:27.745Z,8.38
2023-02-23T03:37:20.360Z,8.43
2023-02-23T03:40:13.051Z,8.43
2023-02-23T03:43:00.321Z,8.40
2023-02-23T03:45:47.652Z,8.37
2023-02-23T03:48:36.531Z,8.43
2023-02-23T03:51:25.940Z,8.42
2023-02-23T03:54:23.415Z,8.36
2023-02-23T03:57:11.296Z,8.37
2023-02-23T04:00:06.267Z,8.39
2023-02-23T04:02:53.716Z,8.40
2023-02-23T04:05:39.849Z,8.41
2023-02-23T04:08:28.550Z,8.44
2023-02-23T04:11:32.330Z,8.43
2023-02-23T04:14:03.934Z,8.44
2023-02-23T04:16:32.055Z,8.48
2023-02-23T04:18:58.691Z,8.49
2023-02-23T04:21:25.266Z,8.52
2023-02-23T04:23:52.079Z,8.55
2023-02-23T04:26:18.478Z,8.54
2023-02-23T04:28:44.882Z,8.55
2023-02-23T04:31:11.448Z,8.54
2023-02-23T04:33:37.817Z,8.54
2023-02-23T04:36:04.534Z,8.52
2023-02-23T04:38:31.395Z,8.54
2023-02-23T04:40:57.799Z,8.52
2023-02-23T04:43:24.188Z,8.49
2023-02-23T04:45:50.645Z,8.47
2023-02-23T04:48:17.134Z,8.44
2023-02-23T04:50:43.555Z,8.45
2023-02-23T04:53:10.227Z,8.40
2023-02-23T04:55:36.618Z,8.45
2023-02-23T04:58:03.311Z,8.44
2023-02-23T05:00:29.816Z,8.43
2023-02-23T05:02:57.196Z,8.43
2023-02-23T05:05:24.833Z,8.39
2023-02-23T05:07:51.348Z,8.37
2023-02-23T05:10:17.768Z,8.33
2023-02-23T05:12:44.140Z,8.28
2023-02-23T05:15:11.003Z,8.33
2023-02-23T05:17:39.430Z,8.28
2023-02-23T05:20:06.277Z,8.30
2023-02-23T05:22:32.698Z,8.25
2023-02-23T05:24:59.079Z,8.27
2023-02-23T05:27:25.507Z,8.28
2023-02-23T05:29:51.923Z,8.30
2023-02-23T05:32:18.473Z,8.31
2023-02-23T05:34:44.915Z,8.31
2023-02-23T05:37:11.339Z,8.27
2023-02-23T05:39:38.094Z,8.31
2023-02-23T05:42:04.579Z,8.25
2023-02-23T05:44:30.955Z,8.35
2023-02-23T05:46:57.305Z,8.33
2023-02-23T05:49:24.053Z,8.28
2023-02-23T05:51:50.524Z,8.27
2023-02-23T05:54:17.193Z,8.32
2023-02-23T05:56:43.650Z,8.37
2023-02-23T05:59:10.043Z,8.39
2023-02-23T06:01:36.501Z,8.37
2023-02-23T06:04:04.574Z,8.40
2023-02-23T06:06:32.210Z,8.33
2023-02-23T06:08:58.706Z,8.39
2023-02-23T06:11:25.110Z,8.36
2023-02-23T06:13:52.328Z,8.37
2023-02-23T06:16:18.897Z,8.35
2023-02-23T06:18:45.413Z,8.36
2023-02-23T06:21:11.838Z,8.40
2023-02-23T06:23:38.925Z,8.48
2023-02-23T06:26:05.405Z,8.42
2023-02-23T06:28:32.132Z,8.46
2023-02-23T06:30:58.622Z,8.47
2023-02-23T06:33:25.938Z,8.45
2023-02-23T06:35:52.849Z,8.46
2023-02-23T06:38:19.310Z,8.46
2023-02-23T06:40:45.742Z,8.47
2023-02-23T06:43:12.391Z,8.45
2023-02-23T06:45:39.124Z,8.45
2023-02-23T06:48:05.860Z,8.28
2023-02-23T06:50:33.519Z,8.39
2023-02-23T06:53:00.307Z,8.54
2023-02-23T06:55:26.675Z,8.58
2023-02-23T06:57:54.276Z,8.63
2023-02-23T07:00:21.557Z,8.69
2023-02-23T07:02:48.039Z,8.69
2023-02-23T07:05:14.558Z,8.71
2023-02-23T07:07:41.041Z,8.68
2023-02-23T07:10:07.879Z,8.71
2023-02-23T07:12:34.426Z,8.75
2023-02-23T07:15:00.845Z,8.79
2023-02-23T07:17:27.248Z,8.81
2023-02-23T07:19:53.767Z,8.82
2023-02-23T07:22:20.208Z,8.88
2023-02-23T07:24:46.756Z,8.90
2023-02-23T07:27:13.185Z,9.13
2023-02-23T07:29:39.561Z,9.03
2023-02-23T07:32:06.258Z,9.13
2023-02-23T07:34:32.726Z,9.16
2023-02-23T07:36:59.154Z,9.19
2023-02-23T07:39:25.647Z,9.12
2023-02-23T07:41:52.087Z,9.12
2023-02-23T07:44:19.072Z,9.12
2023-02-23T07:46:46.461Z,9.10
2023-02-23T07:49:13.098Z,9.16
2023-02-23T07:51:40.528Z,9.18
2023-02-23T07:54:07.196Z,9.24
2023-02-23T07:56:33.854Z,9.33
2023-02-23T07:59:00.260Z,9.39
2023-02-23T08:01:26.950Z,9.43
2023-02-23T08:03:53.407Z,9.43
2023-02-23T08:06:20.084Z,9.53
2023-02-23T08:08:47.190Z,9.52
2023-02-23T08:11:13.743Z,9.57
2023-02-23T08:13:40.099Z,9.78
2023-02-23T08:16:07.018Z,9.98
2023-02-23T08:18:33.463Z,9.83
2023-02-23T08:21:01.781Z,9.91
2023-02-23T08:23:30.705Z,9.87
2023-02-23T08:25:58.012Z,9.84
2023-02-23T08:28:25.135Z,9.72
2023-02-23T08:30:51.574Z,9.87
2023-02-23T08:33:18.300Z,9.87
2023-02-23T08:35:45.256Z,9.90
2023-02-23T08:38:11.670Z,9.88
2023-02-23T08:40:38.358Z,9.98
2023-02-23T08:43:04.723Z,10.11
2023-02-23T08:45:31.451Z,10.23
2023-02-23T08:47:57.810Z,10.23
2023-02-23T08:50:27.045Z,10.28
2023-02-23T08:52:54.468Z,10.34
2023-02-23T08:55:21.699Z,10.38
2023-02-23T08:57:48.154Z,10.45
2023-02-23T09:00:16.690Z,10.56
2023-02-23T09:02:45.483Z,10.66
2023-02-23T09:05:12.053Z,10.71
2023-02-23T09:07:39.726Z,10.79
2023-02-23T09:10:07.073Z,10.83
2023-02-23T09:12:33.483Z,10.86
2023-02-23T09:15:00.241Z,10.83
2023-02-23T09:17:26.669Z,10.84
2023-02-23T09:19:53.250Z,11.15
2023-02-23T09:22:19.810Z,11.20
2023-02-23T09:24:46.280Z,11.44
2023-02-23T09:27:12.957Z,11.54
2023-02-23T09:29:43.353Z,11.62
2023-02-23T09:32:10.652Z,11.80
2023-02-23T09:34:37.650Z,11.99
2023-02-23T09:37:05.124Z,11.90
2023-02-23T09:39:37.969Z,12.03
2023-02-23T09:42:28.413Z,12.30
2023-02-23T09:45:22.669Z,12.36
2023-02-23T09:48:13.092Z,12.34
2023-02-23T09:50:43.979Z,12.31
2023-02-23T09:53:26.105Z,12.48
2023-02-23T09:55:56.110Z,12.41
2023-02-23T09:58:28.694Z,12.58
2023-02-23T10:01:24.530Z,12.67
2023-02-23T10:04:11.537Z,12.88
2023-02-23T10:06:41.792Z,12.72
2023-02-23T10:09:16.775Z,12.82
2023-02-23T10:11:51.484Z,12.75
2023-02-23T10:14:52.870Z,12.75
2023-02-23T10:17:44.087Z,12.90
2023-02-23T10:20:31.632Z,13.03
2023-02-23T10:23:04.632Z,13.00
2023-02-23T10:25:36.070Z,12.84
2023-02-23T10:28:02.701Z,12.75
2023-02-23T10:30:32.358Z,12.77
2023-02-23T10:33:14.326Z,12.69
2023-02-23T10:35:40.731Z,12.83
2023-02-23T10:38:14.926Z,12.77
2023-02-23T10:40:41.959Z,12.82
2023-02-23T10:43:12.534Z,12.69
2023-02-23T10:45:48.317Z,12.70
2023-02-23T10:48:24.526Z,12.48
2023-02-23T10:50:55.195Z,12.46
2023-02-23T10:53:27.790Z,12.58
2023-02-23T10:56:04.814Z,12.51
2023-02-23T10:58:39.445Z,12.49
2023-02-23T11:01:06.347Z,12.52
2023-02-23T11:03:37.733Z,12.44
2023-02-23T11:06:04.617Z,12.49
2023-02-23T11:08:33.842Z,12.56
2023-02-23T11:11:28.804Z,12.68
2023-02-23T11:13:57.122Z,12.57
2023-02-23T11:16:26.696Z,12.66
2023-02-23T11:19:01.821Z,12.84
2023-02-23T11:21:34.390Z,12.72
2023-02-23T11:24:06.611Z,13.01
2023-02-23T11:26:38.740Z,13.02
2023-02-23T11:29:26.902Z,13.02
2023-02-23T11:31:57.359Z,13.05
2023-02-23T11:34:30.456Z,13.20
2023-02-23T11:37:01.028Z,13.20
2023-02-23T11:39:27.533Z,13.23
2023-02-23T11:42:06.377Z,13.35
2023-02-23T11:44:33.773Z,13.09
2023-02-23T11:47:01.424Z,13.24
2023-02-23T11:49:34.668Z,13.28
2023-02-23T11:52:01.258Z,13.72
2023-02-23T11:54:33.156Z,13.59
2023-02-23T11:57:02.286Z,13.48
2023-02-23T11:59:33.626Z,13.48
2023-02-23T12:02:22.975Z,13.81
2023-02-23T12:04:52.858Z,13.66
2023-02-23T12:07:44.220Z,13.78
2023-02-23T12:10:28.163Z,13.81
2023-02-23T12:13:33.647Z,13.70
2023-02-23T12:16:10.928Z,13.60
2023-02-23T12:18:55.873Z,13.83
2023-02-23T12:21:29.922Z,13.92
2023-02-23T12:24:10.021Z,13.80
2023-02-23T12:26:50.342Z,13.88
2023-02-23T12:29:23.204Z,13.84
2023-02-23T12:31:52.691Z,13.97
2023-02-23T12:34:37.571Z,13.79
2023-02-23T12:37:24.830Z,13.71
2023-02-23T12:39:57.534Z,13.90
2023-02-23T12:42:23.886Z,13.97
2023-02-23T12:44:57.300Z,14.12
2023-02-23T12:47:32.627Z,13.92
2023-02-23T12:50:13.518Z,14.00
2023-02-23T12:52:53.002Z,13.81
2023-02-23T12:55:34.210Z,13.83
2023-02-23T12:58:17.236Z,13.92
2023-02-23T13:00:53.237Z,13.68
2023-02-23T13:03:49.487Z,13.84
2023-02-23T13:06:40.694Z,13.94
2023-02-23T13:09:43.653Z,13.83
2023-02-23T13:12:50.649Z,13.86
2023-02-23T13:15:39.560Z,13.90
2023-02-23T13:18:27.994Z,13.83
2023-02-23T13:20:58.556Z,13.90
2023-02-23T13:23:36.638Z,14.08
2023-02-23T13:26:24.601Z,13.98
2023-02-23T13:29:03.159Z,13.89
2023-02-23T13:31:34.167Z,13.81
2023-02-23T13:34:02.803Z,13.74
2023-02-23T13:36:31.955Z,13.52
2023-02-23T13:39:19.365Z,13.37
2023-02-23T13:42:10.852Z,13.10
2023-02-23T13:45:06.461Z,13.13
2023-02-23T13:48:01.021Z,13.20
2023-02-23T13:50:54.379Z,13.42
2023-02-23T13:53:36.970Z,13.34
2023-02-23T13:56:08.253Z,13.23
2023-02-23T13:58:35.663Z,13.22
2023-02-23T14:01:09.806Z,13.26
2023-02-23T14:03:43.546Z,13.08
2023-02-23T14:06:13.948Z,13.30
2023-02-23T14:08:43.131Z,13.26
2023-02-23T14:11:09.877Z,13.34
2023-02-23T14:13:41.710Z,13.19
2023-02-23T14:16:27.126Z,13.18
2023-02-23T14:19:08.557Z,13.11
2023-02-23T14:21:49.812Z,13.25
2023-02-23T14:24:22.502Z,13.01
2023-02-23T14:27:02.311Z,12.92
2023-02-23T14:29:31.791Z,12.85
2023-02-23T14:32:23.048Z,12.89
2023-02-23T14:34:52.641Z,12.80
2023-02-23T14:37:34.390Z,12.87
2023-02-23T14:40:15.749Z,12.84
2023-02-23T14:42:49.118Z,12.93
2023-02-23T14:45:27.008Z,12.81
2023-02-23T14:47:59.882Z,12.82
2023-02-23T14:50:29.625Z,12.97
2023-02-23T14:52:57.284Z,12.64
2023-02-23T14:55:32.863Z,12.62
2023-02-23T14:57:59.278Z,12.67
2023-02-23T15:00:27.412Z,12.57
2023-02-23T15:02:56.848Z,12.58
2023-02-23T15:05:35.938Z,12.60
2023-02-23T15:08:07.346Z,12.62
2023-02-23T15:10:35.315Z,12.30
2023-02-23T15:13:09.794Z,12.52
2023-02-23T15:15:39.247Z,12.65
2023-02-23T15:18:05.626Z,12.61
2023-02-23T15:23:05.675Z,12.79
2023-02-23T15:25:40.359Z,12.93
2023-02-23T15:28:19.619Z,12.81
2023-02-23T15:30:48.057Z,12.88
2023-02-23T15:33:23.201Z,12.83
2023-02-23T15:35:55.149Z,12.65
2023-02-23T15:38:42.899Z,12.77
2023-02-23T15:41:34.830Z,12.79
2023-02-23T15:44:27.500Z,12.70
2023-02-23T15:47:00.076Z,12.75
2023-02-23T15:49:30.948Z,12.57
2023-02-23T15:52:00.878Z,12.74
2023-02-23T15:54:31.963Z,12.66
2023-02-23T15:57:03.131Z,12.57
2023-02-23T15:59:35.103Z,12.58
2023-02-23T16:02:03.496Z,12.53
2023-02-23T16:04:36.701Z,12.61
2023-02-23T16:07:36.566Z,12.55
2023-02-23T16:10:21.743Z,12.55
2023-02-23T16:12:51.727Z,12.72
2023-02-23T16:15:29.544Z,12.53
2023-02-23T16:18:04.797Z,12.58
2023-02-23T16:20:43.343Z,12.51
2023-02-23T16:23:33.388Z,12.49
2023-02-23T16:26:08.532Z,12.60
2023-02-23T16:28:41.028Z,12.33
2023-02-23T16:31:09.477Z,12.29
2023-02-23T16:33:52.549Z,12.14
2023-02-23T16:36:23.364Z,12.25
2023-02-23T16:38:56.713Z,12.25
2023-02-23T16:41:25.556Z,12.37
2023-02-23T16:43:54.164Z,12.25
2023-02-23T16:46:24.787Z,12.35
2023-02-23T16:48:51.820Z,12.21
2023-02-23T16:51:21.089Z,12.23
2023-02-23T16:53:47.439Z,12.14
2023-02-23T16:56:19.369Z,12.29
2023-02-23T16:58:48.477Z,11.85
2023-02-23T17:01:17.966Z,11.98
2023-02-23T17:03:52.795Z,11.82
2023-02-23T17:06:19.724Z,11.79
2023-02-23T17:08:56.176Z,11.64
2023-02-23T17:11:24.267Z,11.63
2023-02-23T17:13:50.659Z,11.93
2023-02-23T17:16:17.826Z,12.06
2023-02-23T17:18:44.907Z,11.93
2023-02-23T17:21:13.139Z,12.14
2023-02-23T17:23:51.232Z,12.01
2023-02-23T17:26:21.181Z,12.03
2023-02-23T17:28:48.434Z,11.82
2023-02-23T17:31:17.314Z,11.73
2023-02-23T17:33:45.001Z,11.61
2023-02-23T17:36:14.380Z,11.43
2023-02-23T17:38:44.509Z,11.65
2023-02-23T17:41:17.511Z,11.50
2023-02-23T17:43:44.278Z,11.63
2023-02-23T17:46:12.372Z,11.44
2023-02-23T17:48:40.522Z,11.47
2023-02-23T17:51:08.967Z,11.45
2023-02-23T17:53:35.817Z,11.48
2023-02-23T17:56:02.298Z,11.41
2023-02-23T17:58:28.695Z,11.42
2023-02-23T18:00:57.127Z,11.50
2023-02-23T18:03:24.428Z,11.41
2023-02-23T18:05:52.011Z,11.21
2023-02-23T18:08:20.133Z,11.35
2023-02-23T18:10:53.447Z,11.36
2023-02-23T18:13:20.177Z,11.20
2023-02-23T18:15:55.089Z,11.24
2023-02-23T18:18:23.962Z,11.24
2023-02-23T18:20:52.574Z,11.17
2023-02-23T18:23:20.316Z,10.97
2023-02-23T18:25:47.835Z,10.98
2023-02-23T18:28:15.542Z,11.08
2023-02-23T18:30:43.138Z,11.30
2023-02-23T18:33:09.860Z,11.15
2023-02-23T18:35:40.658Z,11.40
2023-02-23T18:38:10.499Z,11.17
2023-02-23T18:40:38.519Z,11.42
2023-02-23T18:43:05.378Z,11.45
2023-02-23T18:45:32.285Z,11.16
2023-02-23T18:47:58.615Z,11.29
2023-02-23T18:50:26.335Z,11.14
2023-02-23T18:52:55.985Z,10.94
2023-02-23T18:55:22.981Z,11.15
2023-02-23T18:57:51.546Z,11.15
2023-02-23T19:00:18.594Z,11.27
2023-02-23T19:02:48.462Z,11.18
2023-02-23T19:05:18.180Z,11.33
2023-02-23T19:07:45.455Z,11.27
2023-02-23T19:10:14.770Z,11.11
2023-02-23T19:12:41.546Z,11.34
2023-02-23T19:15:08.564Z,11.25
2023-02-23T19:17:35.865Z,11.31
2023-02-23T19:20:02.335Z,11.07
2023-02-23T19:22:29.404Z,11.03
2023-02-23T19:24:56.081Z,10.95
2023-02-23T19:27:22.783Z,11.08
2023-02-23T19:29:49.376Z,10.83
2023-02-23T19:32:18.667Z,10.75
2023-02-23T19:34:47.798Z,10.55
2023-02-23T19:37:14.509Z,10.54
2023-02-23T19:39:40.895Z,10.51
2023-02-23T19:42:08.098Z,10.45
2023-02-23T19:44:34.610Z,10.39
2023-02-23T19:47:01.165Z,10.45
2023-02-23T19:49:27.625Z,10.54
2023-02-23T19:51:54.233Z,10.51
2023-02-23T19:54:20.794Z,10.50
2023-02-23T19:56:50.091Z,10.43
2023-02-23T19:59:16.578Z,10.19
2023-02-23T20:01:44.959Z,10.20
2023-02-23T20:04:11.808Z,10.24
2023-02-23T20:06:46.802Z,10.30
2023-02-23T20:09:14.001Z,10.36
2023-02-23T20:11:40.908Z,10.44
2023-02-23T20:14:08.113Z,10.38
2023-02-23T20:16:36.241Z,10.36
2023-02-23T20:19:03.703Z,10.28
2023-02-23T20:21:32.169Z,10.29
2023-02-23T20:24:01.477Z,10.39
2023-02-23T20:26:32.014Z,10.37
2023-02-23T20:28:58.671Z,10.26
2023-02-23T20:31:28.618Z,10.46
2023-02-23T20:33:56.540Z,10.33
2023-02-23T20:36:24.488Z,10.37
2023-02-23T20:38:51.434Z,10.27
2023-02-23T20:41:18.437Z,10.18
2023-02-23T20:43:45.660Z,10.06
2023-02-23T20:46:14.399Z,10.19
2023-02-23T20:48:41.512Z,10.15
2023-02-23T20:51:12.640Z,10.10
2023-02-23T20:53:40.639Z,10.12
2023-02-23T20:56:08.664Z,10.16
2023-02-23T20:58:35.760Z,10.15
2023-02-23T21:01:06.755Z,10.24
2023-02-23T21:03:34.405Z,10.17
2023-02-23T21:06:01.055Z,10.33
2023-02-23T21:08:28.706Z,10.36
2023-02-23T21:10:55.237Z,10.37
2023-02-23T21:13:23.093Z,10.28
2023-02-23T21:15:58.572Z,10.23
2023-02-23T21:18:25.246Z,10.09
2023-02-23T21:20:51.723Z,10.16
2023-02-23T21:23:20.330Z,10.18
2023-02-23T21:25:46.952Z,10.20
2023-02-23T21:28:13.351Z,10.05
2023-02-23T21:30:39.911Z,9.91
2023-02-23T21:33:06.446Z,9.93
2023-02-23T21:35:35.206Z,10.01
2023-02-23T21:38:01.779Z,9.87
2023-02-23T21:40:28.288Z,9.94
2023-02-23T21:42:54.710Z,10.13
2023-02-23T21:45:21.247Z,10.08
2023-02-23T21:47:48.774Z,10.09
2023-02-23T21:50:17.876Z,10.10
2023-02-23T21:52:48.489Z,10.08
2023-02-23T21:55:21.469Z,10.07
2023-02-23T21:57:48.630Z,9.90
2023-02-23T22:00:18.946Z,10.07
2023-02-23T22:02:46.410Z,10.13
2023-02-23T22:05:14.768Z,10.10
2023-02-23T22:07:41.695Z,10.08
2023-02-23T22:10:08.753Z,10.00
2023-02-23T22:12:35.244Z,10.08
2023-02-23T22:15:10.289Z,10.13
2023-02-23T22:17:38.611Z,10.23
2023-02-23T22:20:07.251Z,10.20
2023-02-23T22:22:36.269Z,10.20
2023-02-23T22:25:04.830Z,10.19
2023-02-23T22:27:31.811Z,10.39
2023-02-23T22:30:01.857Z,10.22
2023-02-23T22:32:32.950Z,10.29
2023-02-23T22:35:01.048Z,10.24
2023-02-23T22:37:32.039Z,10.34
2023-02-23T22:40:01.427Z,10.35
2023-02-23T22:42:29.693Z,10.21
2023-02-23T22:44:57.451Z,10.13
2023-02-23T22:47:24.649Z,9.97
2023-02-23T22:49:51.095Z,10.08
2023-02-23T22:52:17.815Z,10.07
2023-02-23T22:54:45.434Z,10.02
2023-02-23T22:57:13.008Z,9.96
2023-02-23T22:59:39.574Z,9.94
2023-02-23T23:02:06.054Z,10.06
2023-02-23T23:04:34.631Z,9.99
2023-02-23T23:07:01.335Z,9.90
2023-02-23T23:09:28.252Z,9.95
2023-02-23T23:11:56.744Z,9.81
2023-02-23T23:14:23.740Z,9.88
2023-02-23T23:16:50.222Z,9.75
2023-02-23T23:19:22.604Z,9.89
2023-02-23T23:21:53.177Z,9.94
2023-02-23T23:24:19.641Z,9.89
2023-02-23T23:26:46.106Z,9.89
2023-02-23T23:29:14.640Z,9.84
2023-02-23T23:31:45.429Z,9.94
2023-02-23T23:34:16.677Z,9.92
2023-02-23T23:36:53.187Z,9.82
2023-02-23T23:39:23.530Z,9.82
2023-02-23T23:41:50.636Z,9.61
2023-02-23T23:44:20.876Z,9.61
2023-02-23T23:46:50.710Z,9.74
2023-02-23T23:49:19.419Z,9.72
2023-02-23T23:51:50.978Z,9.97
2023-02-23T23:54:21.576Z,9.80
2023-02-23T23:56:49.733Z,9.72
2023-02-23T23:59:20.427Z,9.86
